Accueil
METAR-TAF:

METAR-TAF

Aéroports :

Benson, Angleterre

latitude: 51-37N, longitude: 001-05W, altitude: 63 m

Observation

Le bulletin a été fait il y a 1 heure et 3 minutes, à 09:50 UTC
Vent 6 kt de ouest
Température 14°C
Humidité 77%
Pression 995 hPa
Visibilité 10 km ou plus
Ciel couvert à une hauteur de 1500 ft

METAR: EGUB 290950Z 26006KT 9999 OVC015 14/10 Q0995 WHT NOSIG

Heure: 11:53 (10:53 UTC)

Prévision

Le bulletin a été fait il y a 3 heures et 6 minutes, à 07:47 UTC
Prévision valable du 29 à 09 UTC au 29 à 18 UTC
Vent 5 kt de ouest/nord-ouest
Visibilité 10 km ou plus
Nuages fragmentés à une hauteur de 1300 ft
Evoluant progressivement
du 29 à 09 UTC au 29 à 10 UTC
Nuages fragmentés à une hauteur de 1600 ft
Temporairement
du 29 à 13 UTC au 29 à 18 UTC
Nuages fragmentés à une hauteur de 2500 ft

TAF: EGUB 290747Z 2909/2918 30005KT 9999 BKN013 BECMG 2909/2910 BKN016 TEMPO 2913/2918 BKN025

Observations et prévisions météorologiques de plus de 4000 aéroports (messages METAR et TAF).

Les stations disponibles sont représentées par des disques jaunes et rouges sur la carte.

Passer la souris dessus pour voir le nom de la station.

Cliquer dessus pour voir les observations et prévisions météorologiques.

Pour changer de carte: cliquez sur les boutons verts avec une croix noire pour zoomer, sur le bouton vert avec un tiret pour effectuer un zoom arrière, ou sur les flèches vertes pour les cartes adjacentes.


METAR-TAF: